Time;durP1;ratioP1;P1;durP2;ratioP2;P2;SDS_P1;SDS_P2;PMS_P1;PMS_P2;Temp;Humidity;BMP_temperature;BMP_pressure;BME280_temperature;BME280_humidity;BME280_pressure;Samples;Min_cycle;Max_cycle;Signal;HPM_P1;HPM_P2
2022/10/15 00:00:50;;;;;;;22.60;14.95;;;13.90;85.70;;;;;;5012874;28;20032;-64
2022/10/15 00:03:16;;;;;;;21.05;13.52;;;13.90;85.70;;;;;;5012865;28;20034;-64
2022/10/15 00:05:42;;;;;;;21.42;15.15;;;13.90;85.60;;;;;;5011474;28;20095;-64
2022/10/15 00:08:09;;;;;;;22.45;14.98;;;13.90;85.60;;;;;;5011461;28;20029;-64
2022/10/15 00:10:36;;;;;;;21.30;13.73;;;13.90;85.50;;;;;;5013561;28;20030;-63
2022/10/15 00:13:02;;;;;;;21.60;15.52;;;13.90;85.50;;;;;;5021182;28;20029;-64
2022/10/15 00:15:28;;;;;;;21.42;13.27;;;13.80;85.50;;;;;;5029065;28;20050;-64
2022/10/15 00:17:54;;;;;;;21.10;13.93;;;13.80;85.50;;;;;;5026033;28;20110;-64
2022/10/15 00:20:20;;;;;;;27.92;14.90;;;13.80;85.50;;;;;;5029644;28;20030;-64
2022/10/15 00:22:46;;;;;;;22.67;14.18;;;13.80;85.50;;;;;;5027255;28;20457;-64
2022/10/15 00:25:12;;;;;;;20.35;13.48;;;13.80;85.60;;;;;;5025421;28;20022;-64
2022/10/15 00:27:38;;;;;;;21.98;13.32;;;13.80;85.60;;;;;;5027974;28;20025;-64
2022/10/15 00:30:05;;;;;;;21.55;13.55;;;13.80;85.60;;;;;;5022547;28;20113;-64
2022/10/15 00:32:30;;;;;;;19.73;13.07;;;13.70;85.60;;;;;;5015252;28;20030;-64
2022/10/15 00:34:56;;;;;;;17.45;11.80;;;13.70;85.60;;;;;;5035146;28;20043;-64
2022/10/15 00:37:22;;;;;;;20.63;11.73;;;13.70;85.60;;;;;;5033121;28;20924;-64
2022/10/15 00:39:48;;;;;;;16.35;10.35;;;13.70;85.60;;;;;;5027713;28;20116;-64
2022/10/15 00:42:14;;;;;;;16.75;10.45;;;13.70;85.50;;;;;;5017383;28;20100;-64
2022/10/15 00:44:53;;;;;;;14.00;10.73;;;13.60;85.40;;;;;;5027912;28;20366;-64
2022/10/15 00:47:38;;;;;;;14.93;10.50;;;13.60;85.40;;;;;;5030936;28;20033;-64
2022/10/15 00:50:13;;;;;;;12.98;9.57;;;13.60;85.30;;;;;;5033795;28;20032;-64
2022/10/15 00:52:39;;;;;;;15.60;10.00;;;13.60;85.40;;;;;;5024186;28;20030;-64
2022/10/15 00:55:21;;;;;;;14.00;9.77;;;13.50;85.30;;;;;;5030791;28;20037;-64
2022/10/15 00:57:49;;;;;;;13.70;9.48;;;13.50;85.30;;;;;;5029583;28;20455;-65
2022/10/15 01:00:15;;;;;;;14.30;10.23;;;13.50;85.20;;;;;;5032260;28;20018;-64
2022/10/15 01:02:42;;;;;;;13.45;9.95;;;13.50;85.20;;;;;;5033443;28;20501;-64
2022/10/15 01:05:10;;;;;;;14.13;10.55;;;13.50;85.10;;;;;;5026312;28;20479;-64
2022/10/15 01:07:37;;;;;;;15.38;10.13;;;13.50;85.10;;;;;;5015909;28;20080;-64
2022/10/15 01:10:05;;;;;;;15.35;10.15;;;13.50;85.00;;;;;;5015404;28;20037;-64
2022/10/15 01:13:05;;;;;;;14.52;10.02;;;13.40;85.00;;;;;;5032227;28;20030;-64
2022/10/15 01:15:45;;;;;;;12.48;8.80;;;13.40;84.90;;;;;;5031645;28;20421;-64
2022/10/15 01:18:23;;;;;;;13.95;10.15;;;13.40;84.90;;;;;;5036297;28;20345;-64
2022/10/15 01:21:21;;;;;;;13.27;9.40;;;13.40;84.90;;;;;;5022098;28;20361;-64
2022/10/15 01:24:05;;;;;;;12.70;9.60;;;13.40;84.70;;;;;;5027941;28;20083;-64
2022/10/15 01:26:46;;;;;;;13.55;10.13;;;13.30;84.70;;;;;;5013085;28;20327;-64
2022/10/15 01:29:26;;;;;;;;;;;13.30;84.70;;;;;;5017881;28;20037;-64
2022/10/15 01:32:28;;;;;;;12.52;8.35;;;13.30;84.80;;;;;;5015971;28;19920;-64
2022/10/15 01:35:31;;;;;;;12.52;9.50;;;13.30;84.80;;;;;;5010107;28;20123;-66
2022/10/15 01:38:21;;;;;;;13.48;9.63;;;13.30;84.80;;;;;;5018815;28;20085;-66
2022/10/15 01:40:59;;;;;;;15.00;9.50;;;13.30;84.90;;;;;;5027785;28;20030;-66
2022/10/15 01:43:35;;;;;;;14.85;10.45;;;13.40;84.90;;;;;;5027748;28;20373;-66
2022/10/15 01:46:28;;;;;;;12.50;9.27;;;13.40;84.90;;;;;;5011863;28;20030;-66
2022/10/15 01:49:06;;;;;;;14.45;10.02;;;13.40;84.90;;;;;;5002155;28;20026;-65
2022/10/15 01:51:35;;;;;;;13.18;9.63;;;13.40;84.90;;;;;;5016982;28;20034;-66
2022/10/15 01:54:04;;;;;;;14.07;9.75;;;13.40;84.90;;;;;;5017404;28;20084;-66
2022/10/15 01:56:32;;;;;;;13.75;10.75;;;13.40;84.90;;;;;;5014440;28;20092;-65
2022/10/15 01:58:59;;;;;;;11.82;8.82;;;13.50;84.90;;;;;;5033140;28;20030;-66
2022/10/15 02:01:24;;;;;;;14.80;10.68;;;13.40;85.60;;;;;;5024724;28;20025;-66
2022/10/15 02:03:52;;;;;;;14.95;10.98;;;13.50;85.00;;;;;;5016554;28;20030;-65
2022/10/15 02:06:21;;;;;;;13.13;9.82;;;13.50;84.90;;;;;;5012761;28;20048;-65
2022/10/15 02:08:55;;;;;;;13.80;9.80;;;13.50;84.90;;;;;;5014049;28;20041;-66
2022/10/15 02:11:21;;;;;;;13.93;10.02;;;13.50;84.90;;;;;;5013820;28;20034;-66
2022/10/15 02:13:59;;;;;;;14.50;10.05;;;13.50;84.90;;;;;;5014712;28;20120;-66
2022/10/15 02:16:32;;;;;;;13.30;10.15;;;13.50;84.90;;;;;;5027740;28;20025;-66
2022/10/15 02:19:04;;;;;;;;;;;13.50;84.90;;;;;;5014400;28;20367;-66
2022/10/15 02:21:32;;;;;;;11.52;8.15;;;13.50;84.90;;;;;;5010551;28;20294;-66
2022/10/15 02:23:57;;;;;;;13.07;9.45;;;13.50;85.00;;;;;;5024239;28;20462;-66
2022/10/15 02:26:28;;;;;;;13.70;10.32;;;13.50;84.90;;;;;;5012360;28;20117;-66
2022/10/15 02:28:57;;;;;;;14.02;10.55;;;13.50;84.90;;;;;;5014375;28;20129;-66
2022/10/15 02:31:25;;;;;;;14.32;10.80;;;13.50;85.00;;;;;;5010122;28;20023;-66
2022/10/15 02:33:59;;;;;;;20.65;11.07;;;13.50;85.10;;;;;;5006294;28;20034;-66
2022/10/15 02:36:26;;;;;;;14.77;10.40;;;13.50;85.10;;;;;;5011899;28;20059;-66
2022/10/15 02:38:54;;;;;;;16.02;11.32;;;13.50;85.00;;;;;;5014858;28;20360;-66
2022/10/15 02:41:20;;;;;;;15.13;11.35;;;13.50;85.00;;;;;;5013408;28;20029;-66
2022/10/15 02:43:47;;;;;;;17.77;11.13;;;13.50;84.90;;;;;;5010292;28;20026;-66
2022/10/15 02:46:14;;;;;;;18.17;11.95;;;13.50;85.00;;;;;;5024719;28;20029;-66
2022/10/15 02:48:41;;;;;;;14.70;10.55;;;13.50;85.00;;;;;;5014525;28;20060;-66
2022/10/15 02:51:07;;;;;;;18.45;12.43;;;13.50;84.90;;;;;;5010962;28;20058;-66
2022/10/15 02:53:33;;;;;;;15.35;11.43;;;13.50;84.90;;;;;;5010737;28;20030;-66
2022/10/15 02:55:58;;;;;;;14.50;11.10;;;13.50;84.90;;;;;;5006385;28;20084;-66
2022/10/15 02:58:24;;;;;;;16.77;11.68;;;13.50;84.90;;;;;;5013153;28;20455;-66
2022/10/15 03:00:51;;;;;;;15.27;11.23;;;13.50;84.90;;;;;;5014713;28;20025;-66
2022/10/15 03:03:16;;;;;;;16.05;11.60;;;13.50;85.00;;;;;;5012275;28;20026;-66
2022/10/15 03:05:44;;;;;;;15.38;11.13;;;13.50;84.90;;;;;;4995166;28;20022;-66
2022/10/15 03:08:10;;;;;;;17.13;11.07;;;13.50;85.00;;;;;;4998696;28;20088;-65
2022/10/15 03:10:36;;;;;;;15.55;11.27;;;13.50;84.90;;;;;;5012802;28;20018;-66
2022/10/15 03:13:04;;;;;;;15.93;11.15;;;13.50;84.90;;;;;;5012747;28;20026;-66
2022/10/15 03:15:35;;;;;;;15.27;11.25;;;13.50;84.90;;;;;;5012663;28;20061;-66
2022/10/15 03:18:01;;;;;;;15.25;11.30;;;13.50;84.90;;;;;;5010094;28;20542;-66
2022/10/15 03:20:27;;;;;;;15.35;11.63;;;13.40;84.80;;;;;;5008180;28;20208;-66
2022/10/15 03:22:53;;;;;;;16.92;11.68;;;13.40;84.80;;;;;;5011055;28;20030;-66
2022/10/15 03:25:19;;;;;;;15.65;12.13;;;13.40;84.80;;;;;;5026025;28;20109;-66
2022/10/15 03:27:51;;;;;;;17.05;11.77;;;13.40;84.70;;;;;;4998877;28;20041;-66
2022/10/15 03:30:24;;;;;;;17.40;11.90;;;13.30;84.70;;;;;;5025062;28;20036;-66
2022/10/15 03:32:50;;;;;;;13.40;10.68;;;13.30;84.70;;;;;;4996233;28;20041;-66
2022/10/15 03:35:16;;;;;;;15.40;11.30;;;13.30;84.70;;;;;;5019777;28;20051;-66
2022/10/15 03:37:42;;;;;;;17.92;12.00;;;13.30;84.70;;;;;;5013701;28;20022;-66
2022/10/15 03:40:09;;;;;;;14.68;11.35;;;13.30;84.70;;;;;;5011930;28;20073;-66
2022/10/15 03:42:34;;;;;;;15.50;11.60;;;13.20;84.70;;;;;;5015282;28;20122;-66
2022/10/15 03:45:01;;;;;;;15.23;11.57;;;13.30;84.70;;;;;;5012531;28;20056;-65
2022/10/15 03:47:27;;;;;;;16.23;11.25;;;13.30;84.80;;;;;;5012746;28;20026;-66
2022/10/15 03:49:55;;;;;;;17.52;11.30;;;13.30;84.70;;;;;;5017126;28;20030;-66
2022/10/15 03:52:20;;;;;;;15.82;11.38;;;13.30;84.80;;;;;;5016386;28;20056;-66
2022/10/15 03:54:47;;;;;;;14.73;10.88;;;13.30;84.80;;;;;;5016554;28;20033;-66
2022/10/15 03:57:16;;;;;;;14.43;10.70;;;13.30;84.80;;;;;;5015206;28;20022;-66
2022/10/15 03:59:45;;;;;;;16.17;11.57;;;13.30;84.80;;;;;;5024458;28;20347;-66
2022/10/15 04:02:12;;;;;;;15.38;11.50;;;13.30;84.80;;;;;;4998088;28;20336;-66
2022/10/15 04:04:38;;;;;;;19.27;12.48;;;13.30;84.80;;;;;;5018959;28;20032;-66
2022/10/15 04:07:03;;;;;;;16.42;12.20;;;13.30;84.80;;;;;;5016547;28;20014;-66
2022/10/15 04:09:31;;;;;;;15.38;11.82;;;13.30;84.80;;;;;;5013305;28;20022;-66
2022/10/15 04:12:17;;;;;;;16.08;11.93;;;13.30;84.80;;;;;;5015642;28;20062;-66
2022/10/15 04:14:43;;;;;;;16.73;13.13;;;13.40;84.90;;;;;;5013512;28;20042;-66
2022/10/15 04:17:09;;;;;;;18.17;12.95;;;13.40;84.80;;;;;;5015091;28;20091;-65
2022/10/15 04:19:35;;;;;;;17.73;13.45;;;13.40;84.80;;;;;;5012587;28;20092;-66
2022/10/15 04:22:03;;;;;;;18.08;13.00;;;13.30;84.80;;;;;;5026001;28;20033;-66
2022/10/15 04:24:34;;;;;;;16.67;12.60;;;13.30;84.80;;;;;;5017237;28;20022;-66
2022/10/15 04:27:00;;;;;;;17.55;12.30;;;13.30;84.80;;;;;;5015723;28;20109;-66
2022/10/15 04:29:26;;;;;;;16.65;12.50;;;13.30;84.80;;;;;;5016569;28;20108;-66
2022/10/15 04:31:52;;;;;;;17.02;12.43;;;13.30;84.90;;;;;;4996903;28;20026;-66
2022/10/15 04:34:18;;;;;;;18.45;11.93;;;13.30;84.80;;;;;;5011449;28;20022;-66
2022/10/15 04:36:44;;;;;;;16.92;12.18;;;13.30;84.80;;;;;;5018996;28;20107;-66
2022/10/15 04:39:16;;;;;;;15.63;11.43;;;13.30;84.90;;;;;;5020390;28;20113;-66
2022/10/15 04:41:43;;;;;;;18.48;12.13;;;13.30;84.80;;;;;;5021595;28;20022;-66
2022/10/15 04:44:24;;;;;;;16.88;12.27;;;13.30;84.80;;;;;;5019388;28;20026;-66
2022/10/15 04:46:54;;;;;;;15.07;11.35;;;13.30;84.80;;;;;;5018122;28;20339;-66
2022/10/15 04:49:40;;;;;;;16.23;11.38;;;13.30;84.90;;;;;;5019150;28;20120;-65
2022/10/15 04:52:26;;;;;;;15.80;11.30;;;13.30;84.90;;;;;;5001882;28;20370;-66
2022/10/15 04:54:56;;;;;;;16.75;11.80;;;13.30;84.90;;;;;;5013188;28;20041;-66
2022/10/15 04:57:22;;;;;;;17.88;12.90;;;13.30;84.90;;;;;;5016952;28;20022;-66
2022/10/15 04:59:47;;;;;;;16.95;12.70;;;13.30;84.90;;;;;;5019584;28;20072;-65
2022/10/15 05:02:22;;;;;;;18.45;12.43;;;13.30;84.90;;;;;;5010218;28;20032;-66
2022/10/15 05:04:53;;;;;;;;;;;13.30;84.90;;;;;;5026919;28;20350;-66
2022/10/15 05:07:19;;;;;;;16.48;10.93;;;13.30;84.90;;;;;;5019373;28;19916;-66
2022/10/15 05:09:46;;;;;;;16.55;10.98;;;13.20;84.90;;;;;;5016816;28;20025;-66
2022/10/15 05:12:12;;;;;;;16.83;11.45;;;13.30;85.00;;;;;;5016830;28;20562;-66
2022/10/15 05:14:38;;;;;;;17.33;12.02;;;13.30;85.60;;;;;;5020080;28;20124;-65
2022/10/15 05:17:09;;;;;;;20.05;11.82;;;13.30;85.00;;;;;;5012612;28;20022;-66
2022/10/15 05:19:39;;;;;;;16.85;11.60;;;13.30;85.00;;;;;;5022662;28;20138;-66
2022/10/15 05:22:06;;;;;;;18.83;12.75;;;13.30;85.00;;;;;;5051133;28;20022;-66
2022/10/15 05:24:36;;;;;;;17.00;11.73;;;13.30;85.10;;;;;;5033679;28;20125;-66
2022/10/15 05:27:09;;;;;;;17.33;12.25;;;13.30;85.10;;;;;;5023931;28;20067;-66
2022/10/15 05:29:38;;;;;;;19.00;12.48;;;13.30;85.10;;;;;;5015333;28;20410;-66
2022/10/15 05:32:05;;;;;;;17.65;12.48;;;13.30;85.10;;;;;;5032135;28;20017;-66
2022/10/15 05:34:30;;;;;;;17.05;12.57;;;13.40;85.30;;;;;;5028522;28;20145;-67
2022/10/15 05:37:07;;;;;;;17.83;12.85;;;13.40;85.30;;;;;;5021303;28;20029;-66
2022/10/15 05:39:32;;;;;;;17.27;12.15;;;13.40;85.30;;;;;;5013332;28;20025;-66
2022/10/15 05:41:58;;;;;;;17.58;12.82;;;13.40;85.30;;;;;;5017570;28;20053;-66
2022/10/15 05:44:46;;;;;;;17.48;12.52;;;13.40;85.30;;;;;;5009969;28;20397;-66
2022/10/15 05:47:12;;;;;;;16.27;11.32;;;13.40;85.40;;;;;;5015687;28;20105;-66
2022/10/15 05:49:39;;;;;;;16.77;12.10;;;13.40;85.40;;;;;;5011977;28;20050;-66
2022/10/15 05:52:16;;;;;;;20.60;13.30;;;13.50;85.50;;;;;;5014240;28;20037;-66
2022/10/15 05:55:00;;;;;;;19.15;12.48;;;13.50;85.50;;;;;;5013773;28;20095;-66
2022/10/15 05:57:25;;;;;;;20.45;14.15;;;13.50;85.60;;;;;;5014573;28;20034;-66
2022/10/15 05:59:51;;;;;;;17.58;13.50;;;13.50;85.60;;;;;;5012798;28;20026;-66
2022/10/15 06:02:17;;;;;;;17.90;12.82;;;13.50;85.60;;;;;;5015455;28;20030;-66
2022/10/15 06:04:42;;;;;;;17.73;12.85;;;13.50;85.60;;;;;;5014304;28;20018;-66
2022/10/15 06:07:08;;;;;;;17.23;13.25;;;13.60;85.70;;;;;;5013624;28;20101;-66
2022/10/15 06:09:33;;;;;;;19.92;13.07;;;13.60;85.70;;;;;;5013966;28;20453;-66
2022/10/15 06:11:59;;;;;;;17.50;12.38;;;13.60;85.80;;;;;;5015328;28;20056;-66
2022/10/15 06:14:25;;;;;;;21.77;15.00;;;13.60;85.80;;;;;;5018453;28;20049;-66
2022/10/15 06:16:53;;;;;;;23.52;16.48;;;13.60;86.00;;;;;;5015308;28;20041;-66
2022/10/15 06:19:19;;;;;;;20.60;14.48;;;13.70;86.10;;;;;;5011696;28;20367;-66
2022/10/15 06:21:45;;;;;;;25.20;17.77;;;13.70;86.10;;;;;;5014647;28;20033;-66
2022/10/15 06:24:10;;;;;;;25.73;17.63;;;13.80;86.20;;;;;;5013604;28;20064;-66
2022/10/15 06:26:36;;;;;;;25.80;18.90;;;13.80;86.20;;;;;;5014027;28;20080;-66
2022/10/15 06:29:02;;;;;;;24.33;17.67;;;13.80;86.30;;;;;;5013004;28;20104;-67
2022/10/15 06:31:27;;;;;;;26.58;18.98;;;13.90;86.40;;;;;;5015619;28;20044;-66
2022/10/15 06:33:53;;;;;;;25.63;18.17;;;14.00;86.50;;;;;;5013289;28;20026;-66
2022/10/15 06:36:20;;;;;;;28.10;18.35;;;14.00;86.50;;;;;;5013105;28;20040;-66
2022/10/15 06:38:46;;;;;;;26.67;19.52;;;14.00;86.60;;;;;;5015437;28;20057;-66
2022/10/15 06:41:12;;;;;;;28.48;19.45;;;14.10;86.70;;;;;;5014250;28;20112;-66
2022/10/15 06:43:38;;;;;;;26.20;18.75;;;14.10;86.80;;;;;;5013314;28;20029;-67
2022/10/15 06:46:05;;;;;;;26.02;17.65;;;14.10;86.70;;;;;;5014208;28;20042;-66
2022/10/15 06:48:31;;;;;;;27.02;19.88;;;14.10;86.80;;;;;;5014414;28;20026;-66
2022/10/15 06:51:00;;;;;;;29.73;19.35;;;14.20;86.90;;;;;;5011535;28;20030;-67
2022/10/15 06:53:27;;;;;;;27.10;18.90;;;14.20;86.90;;;;;;5010509;28;20438;-66
2022/10/15 06:55:58;;;;;;;26.88;18.42;;;14.20;87.00;;;;;;5012857;28;20446;-66
2022/10/15 06:58:23;;;;;;;27.80;19.10;;;14.30;87.10;;;;;;5013178;28;20034;-66
2022/10/15 07:00:49;;;;;;;28.65;19.15;;;14.30;87.10;;;;;;5014393;28;20028;-66
2022/10/15 07:03:15;;;;;;;29.63;19.00;;;14.30;87.10;;;;;;5013484;28;20041;-66
2022/10/15 07:05:40;;;;;;;27.92;18.92;;;14.30;87.20;;;;;;4988525;28;20037;-66
2022/10/15 07:08:06;;;;;;;27.27;18.77;;;14.30;87.20;;;;;;5013369;28;20030;-66
2022/10/15 07:10:31;;;;;;;25.27;17.95;;;14.40;87.30;;;;;;5012575;28;20151;-65
2022/10/15 07:13:01;;;;;;;25.92;18.67;;;14.40;87.30;;;;;;5014470;28;20125;-66
2022/10/15 07:15:27;;;;;;;26.38;18.13;;;14.40;87.30;;;;;;5013924;28;20041;-66
2022/10/15 07:17:55;;;;;;;27.40;18.98;;;14.40;87.40;;;;;;5013996;28;20446;-66
2022/10/15 07:20:21;;;;;;;27.40;18.88;;;14.40;87.40;;;;;;5013404;28;20080;-65
2022/10/15 07:22:47;;;;;;;27.17;18.45;;;14.50;87.50;;;;;;5013048;28;20025;-65
2022/10/15 07:25:14;;;;;;;29.25;19.75;;;14.50;87.50;;;;;;5012359;28;20033;-66
2022/10/15 07:27:41;;;;;;;30.55;18.98;;;14.50;87.60;;;;;;5013880;28;20057;-65
2022/10/15 07:30:07;;;;;;;26.38;17.83;;;14.50;87.60;;;;;;5012911;28;20478;-65
2022/10/15 07:32:34;;;;;;;26.52;18.60;;;14.50;87.60;;;;;;5012875;28;20037;-66
2022/10/15 07:34:59;;;;;;;26.75;17.73;;;14.50;87.60;;;;;;5013874;28;20034;-66
2022/10/15 07:37:26;;;;;;;24.30;17.02;;;14.50;87.60;;;;;;5012919;28;20036;-65
2022/10/15 07:39:52;;;;;;;30.70;19.13;;;14.60;87.70;;;;;;4995026;28;20112;-67
2022/10/15 07:42:17;;;;;;;28.40;18.10;;;14.60;87.70;;;;;;5012468;28;20354;-67
2022/10/15 07:44:43;;;;;;;24.98;17.15;;;14.60;87.80;;;;;;5013523;28;20026;-66
2022/10/15 07:47:08;;;;;;;26.77;19.15;;;14.60;87.80;;;;;;5012703;28;20160;-65
2022/10/15 07:49:34;;;;;;;29.38;18.00;;;14.60;87.80;;;;;;5013669;28;20053;-65
2022/10/15 07:52:00;;;;;;;26.33;16.40;;;14.70;87.90;;;;;;5014580;28;20022;-65
2022/10/15 07:54:27;;;;;;;29.35;18.85;;;14.60;87.80;;;;;;5013503;28;20030;-65
2022/10/15 07:56:53;;;;;;;24.85;17.48;;;14.70;87.90;;;;;;5014342;28;20358;-65
2022/10/15 07:59:19;;;;;;;26.80;18.75;;;14.60;87.90;;;;;;5010125;28;20027;-65
2022/10/15 08:01:44;;;;;;;30.00;20.20;;;14.70;87.90;;;;;;5010940;28;20391;-65
2022/10/15 08:04:10;;;;;;;30.92;18.73;;;14.70;88.00;;;;;;5014135;28;20026;-65
2022/10/15 08:06:38;;;;;;;27.35;17.83;;;14.70;88.00;;;;;;5010384;28;20293;-65
2022/10/15 08:09:04;;;;;;;26.17;18.25;;;14.70;87.90;;;;;;5012899;28;20049;-65
2022/10/15 08:11:30;;;;;;;27.30;18.17;;;14.80;88.00;;;;;;5010057;28;20031;-65
2022/10/15 08:13:55;;;;;;;26.98;17.45;;;14.80;87.90;;;;;;5011587;28;20036;-66
2022/10/15 08:16:21;;;;;;;24.52;17.08;;;14.90;87.80;;;;;;5013559;28;20044;-65
2022/10/15 08:18:58;;;;;;;25.60;16.98;;;15.00;87.70;;;;;;5013728;28;20347;-65
2022/10/15 08:21:23;;;;;;;30.52;17.85;;;15.00;87.60;;;;;;5013581;28;20464;-65
2022/10/15 08:23:50;;;;;;;26.63;16.77;;;15.10;87.60;;;;;;5014072;28;20058;-66
2022/10/15 08:26:15;;;;;;;26.20;16.90;;;15.20;87.60;;;;;;5012471;28;20398;-65
2022/10/15 08:28:41;;;;;;;25.33;16.50;;;15.20;87.50;;;;;;5018763;28;20057;-66
2022/10/15 08:31:07;;;;;;;25.65;16.02;;;15.30;87.40;;;;;;5020358;28;20030;-65
2022/10/15 08:33:36;;;;;;;24.38;16.48;;;15.50;87.20;;;;;;5019966;28;20029;-66
2022/10/15 08:36:05;;;;;;;21.92;14.10;;;15.60;86.90;;;;;;5023210;28;20041;-66
2022/10/15 08:38:31;;;;;;;23.02;15.27;;;15.90;86.60;;;;;;5009999;28;20022;-66
2022/10/15 08:40:59;;;;;;;20.70;14.20;;;16.10;86.10;;;;;;5016907;28;20072;-66
2022/10/15 08:43:32;;;;;;;23.02;15.82;;;16.40;85.70;;;;;;5017087;28;20092;-66
2022/10/15 08:46:01;;;;;;;20.73;13.88;;;16.50;85.30;;;;;;5017282;28;20119;-66
2022/10/15 08:48:35;;;;;;;21.35;14.75;;;16.50;85.20;;;;;;5016770;28;20026;-66
2022/10/15 08:51:04;;;;;;;19.80;13.00;;;16.40;85.10;;;;;;5016678;28;20029;-66
2022/10/15 08:53:39;;;;;;;21.02;13.75;;;16.40;85.10;;;;;;5017199;28;20049;-65
2022/10/15 08:56:14;;;;;;;20.20;14.38;;;16.40;85.20;;;;;;5016970;28;20034;-63
2022/10/15 08:59:12;;;;;;;20.50;13.15;;;16.30;85.30;;;;;;5016961;28;20030;-64
2022/10/15 09:01:49;;;;;;;18.63;13.05;;;16.20;85.20;;;;;;5013297;28;20343;-64
2022/10/15 09:04:17;;;;;;;17.88;12.35;;;16.20;85.40;;;;;;5017157;28;20026;-64
2022/10/15 09:06:45;;;;;;;18.05;12.23;;;16.20;85.40;;;;;;5016984;28;20033;-64
2022/10/15 09:09:19;;;;;;;19.58;13.02;;;16.20;85.40;;;;;;5017060;28;20091;-64
2022/10/15 09:12:15;;;;;;;19.33;13.23;;;16.20;85.50;;;;;;5015860;28;20042;-63
2022/10/15 09:14:44;;;;;;;17.17;11.20;;;16.20;85.40;;;;;;5016239;28;20042;-64
2022/10/15 09:17:23;;;;;;;18.23;12.85;;;16.30;85.30;;;;;;5016655;28;20057;-63
2022/10/15 09:19:52;;;;;;;18.30;12.18;;;16.40;85.10;;;;;;5012671;28;20398;-63
2022/10/15 09:22:31;;;;;;;19.20;12.55;;;16.50;84.90;;;;;;5015196;28;20022;-64
2022/10/15 09:24:57;;;;;;;17.65;12.98;;;16.50;84.70;;;;;;5015660;28;20022;-64
2022/10/15 09:27:30;;;;;;;19.38;12.80;;;16.50;84.70;;;;;;5012583;28;20038;-64
2022/10/15 09:30:12;;;;;;;19.98;13.45;;;16.50;84.60;;;;;;5014605;28;20045;-64
2022/10/15 09:32:55;;;;;;;18.55;12.20;;;16.50;84.80;;;;;;5015948;28;20033;-64
2022/10/15 09:35:31;;;;;;;17.65;12.00;;;16.40;84.80;;;;;;5015859;28;20078;-65
2022/10/15 09:38:05;;;;;;;16.25;10.48;;;16.40;84.90;;;;;;5014266;28;20370;-66
2022/10/15 09:40:43;;;;;;;15.07;10.23;;;16.40;84.90;;;;;;5015073;28;20033;-65
2022/10/15 09:43:10;;;;;;;18.33;10.73;;;16.40;84.80;;;;;;5029546;28;20032;-66
2022/10/15 09:45:36;;;;;;;17.05;11.48;;;16.50;84.60;;;;;;5024186;28;20087;-65
2022/10/15 09:48:14;;;;;;;16.92;10.55;;;16.50;84.60;;;;;;5021985;28;20029;-66
2022/10/15 09:50:43;;;;;;;16.42;9.57;;;16.60;84.60;;;;;;5013810;28;20124;-65
2022/10/15 09:53:24;;;;;;;16.33;9.65;;;16.60;84.50;;;;;;5019345;28;20088;-65
2022/10/15 09:55:52;;;;;;;16.00;8.48;;;16.70;84.40;;;;;;5016849;28;20068;-65
2022/10/15 09:58:28;;;;;;;14.70;8.48;;;16.70;84.20;;;;;;5030033;28;20030;-65
2022/10/15 10:01:04;;;;;;;14.23;8.90;;;16.80;84.10;;;;;;5030771;28;20026;-65
2022/10/15 10:03:38;;;;;;;12.32;8.25;;;16.70;84.10;;;;;;5022215;28;20344;-63
2022/10/15 10:06:12;;;;;;;12.77;8.00;;;16.70;84.30;;;;;;5023378;28;20030;-63
2022/10/15 10:08:54;;;;;;;14.18;8.38;;;16.60;84.50;;;;;;5030024;28;20095;-63
2022/10/15 10:11:22;;;;;;;14.30;8.50;;;16.50;84.60;;;;;;5027780;28;20108;-63
2022/10/15 10:13:48;;;;;;;13.70;8.80;;;16.50;84.80;;;;;;5029495;28;20104;-63
2022/10/15 10:16:16;;;;;;;13.13;8.40;;;16.50;85.00;;;;;;5015549;28;20122;-63
2022/10/15 10:18:49;;;;;;;14.80;9.25;;;16.50;85.00;;;;;;5024682;28;20068;-63
2022/10/15 10:21:25;;;;;;;16.23;9.35;;;16.50;85.10;;;;;;5022268;28;20418;-63
2022/10/15 10:23:51;;;;;;;14.07;8.50;;;16.50;85.30;;;;;;5028737;28;20076;-63
2022/10/15 10:26:17;;;;;;;13.52;8.23;;;16.50;85.30;;;;;;5022202;28;20061;-63
2022/10/15 10:28:50;;;;;;;15.52;9.10;;;16.40;85.40;;;;;;5017221;28;20121;-63
2022/10/15 10:31:16;;;;;;;15.23;8.75;;;16.40;85.60;;;;;;5023280;28;20045;-63
2022/10/15 10:33:49;;;;;;;16.50;8.73;;;16.40;85.80;;;;;;5034984;28;20034;-63
2022/10/15 10:36:25;;;;;;;14.02;9.05;;;16.40;85.90;;;;;;5032387;28;20064;-63
2022/10/15 10:39:14;;;;;;;15.07;9.45;;;16.30;86.00;;;;;;5013523;28;20466;-63
2022/10/15 10:41:56;;;;;;;13.45;8.73;;;16.30;86.20;;;;;;5014888;28;20049;-63
2022/10/15 10:44:32;;;;;;;14.68;8.15;;;16.30;86.40;;;;;;5017167;28;20048;-63
2022/10/15 10:47:07;;;;;;;14.32;9.00;;;16.20;86.60;;;;;;5028513;28;20048;-64
2022/10/15 10:49:36;;;;;;;13.57;8.85;;;16.20;86.70;;;;;;5014185;28;20033;-63
2022/10/15 10:52:03;;;;;;;14.65;8.77;;;16.10;86.80;;;;;;5012403;28;20352;-63
2022/10/15 10:54:30;;;;;;;14.50;8.90;;;16.10;86.90;;;;;;5012671;28;20118;-63
2022/10/15 10:56:58;;;;;;;17.17;8.95;;;16.10;87.10;;;;;;4993280;28;20046;-63
2022/10/15 10:59:33;;;;;;;15.07;9.02;;;16.10;87.10;;;;;;5007297;28;20037;-63
2022/10/15 11:01:59;;;;;;;14.60;9.27;;;16.10;87.30;;;;;;5017644;28;20053;-63
2022/10/15 11:04:29;;;;;;;15.15;9.55;;;16.10;87.30;;;;;;5018311;28;20386;-63
2022/10/15 11:07:03;;;;;;;16.75;9.88;;;16.10;87.50;;;;;;5030223;28;20037;-63
2022/10/15 11:09:42;;;;;;;14.73;8.75;;;16.10;87.60;;;;;;5013471;28;20091;-63
2022/10/15 11:12:11;;;;;;;13.65;9.05;;;16.10;87.70;;;;;;5030136;28;20489;-64
2022/10/15 11:14:46;;;;;;;14.23;8.38;;;16.10;87.80;;;;;;5019819;28;20057;-63
2022/10/15 11:17:49;;;;;;;14.68;8.88;;;16.10;87.90;;;;;;5026657;28;20502;-63
2022/10/15 11:20:48;;;;;;;13.77;7.97;;;16.10;87.90;;;;;;5029614;28;20176;-63
2022/10/15 11:23:28;;;;;;;13.45;8.55;;;16.10;88.10;;;;;;5019621;28;20042;-63
2022/10/15 11:26:17;;;;;;;14.98;9.18;;;16.10;88.10;;;;;;5014801;28;20025;-63
2022/10/15 11:28:58;;;;;;;14.05;9.10;;;16.10;88.20;;;;;;5022071;28;20041;-63
2022/10/15 11:31:36;;;;;;;13.02;7.97;;;16.10;88.20;;;;;;5021915;28;20052;-63
2022/10/15 11:34:02;;;;;;;13.10;7.47;;;16.10;88.20;;;;;;5029529;28;20120;-64
2022/10/15 11:36:42;;;;;;;12.55;8.43;;;16.10;88.30;;;;;;5016045;28;20117;-64
2022/10/15 11:39:29;;;;;;;12.50;7.27;;;16.10;88.40;;;;;;5011935;28;20030;-65
2022/10/15 11:42:12;;;;;;;13.43;7.90;;;16.20;88.50;;;;;;5004908;28;20287;-65
2022/10/15 11:44:50;;;;;;;10.70;6.10;;;16.20;88.50;;;;;;5012990;28;20034;-65
2022/10/15 11:47:37;;;;;;;10.73;6.40;;;16.20;88.60;;;;;;5028130;28;20030;-65
2022/10/15 11:50:28;;;;;;;10.32;6.35;;;16.20;88.70;;;;;;5028215;28;20029;-65
2022/10/15 11:53:31;;;;;;;10.63;6.03;;;16.20;88.70;;;;;;5019372;28;20702;-65
2022/10/15 11:56:04;;;;;;;9.68;5.60;;;16.30;88.80;;;;;;5014675;28;20037;-65
2022/10/15 11:58:40;;;;;;;10.00;5.43;;;16.20;89.00;;;;;;5018872;28;20042;-65
2022/10/15 12:01:19;;;;;;;9.60;5.13;;;16.30;88.80;;;;;;5012615;28;20093;-65
2022/10/15 12:03:50;;;;;;;8.70;4.93;;;16.30;88.80;;;;;;5015114;28;20353;-65
2022/10/15 12:06:21;;;;;;;11.20;4.72;;;16.30;88.90;;;;;;5026176;28;20133;-65
2022/10/15 12:08:49;;;;;;;9.38;4.93;;;16.30;89.00;;;;;;5028055;28;20087;-65
2022/10/15 12:11:20;;;;;;;8.87;4.60;;;16.30;89.00;;;;;;5035359;28;20387;-65
2022/10/15 12:13:55;;;;;;;8.20;4.40;;;16.30;89.00;;;;;;5018854;28;20297;-65
2022/10/15 12:16:33;;;;;;;7.82;4.60;;;16.40;89.20;;;;;;5020016;28;20072;-65
2022/10/15 12:19:12;;;;;;;6.78;3.78;;;16.40;89.30;;;;;;5017290;28;20034;-66
2022/10/15 12:21:42;;;;;;;8.32;4.40;;;16.40;89.40;;;;;;5034788;28;20421;-65
2022/10/15 12:24:36;;;;;;;7.38;3.88;;;16.40;89.40;;;;;;5016935;28;20374;-65
2022/10/15 12:27:23;;;;;;;7.45;4.22;;;16.40;89.40;;;;;;5032374;28;20050;-66
2022/10/15 12:29:59;;;;;;;7.57;4.30;;;16.50;89.50;;;;;;5034351;28;20021;-66
2022/10/15 12:32:35;;;;;;;8.48;4.30;;;16.50;89.50;;;;;;5018073;28;20125;-65
2022/10/15 12:35:04;;;;;;;7.93;4.30;;;16.50;89.50;;;;;;5026573;28;20152;-66
2022/10/15 12:37:36;;;;;;;8.50;4.60;;;16.50;89.50;;;;;;5019926;28;20054;-65
2022/10/15 12:40:22;;;;;;;8.18;4.97;;;16.50;89.50;;;;;;5017504;28;20022;-65
2022/10/15 12:43:02;;;;;;;7.03;4.40;;;16.60;89.50;;;;;;5010745;28;20458;-65
2022/10/15 12:45:31;;;;;;;8.57;4.53;;;16.70;89.60;;;;;;5011618;28;20042;-65
2022/10/15 12:48:03;;;;;;;7.70;4.82;;;16.70;89.50;;;;;;5011112;28;20103;-65
2022/10/15 12:50:31;;;;;;;7.60;5.03;;;16.70;89.50;;;;;;5018500;28;20034;-65